sensor_id;sensor_type;location;lat;lon;timestamp;P1;durP1;ratioP1;P2;durP2;ratioP2
53513;SDS011;39768;54.148;12.174;2023-02-28T00:01:12;4.15;;;3.03;;
53513;SDS011;39768;54.148;12.174;2023-02-28T00:05:15;4.20;;;2.25;;
53513;SDS011;39768;54.148;12.174;2023-02-28T00:09:19;5.22;;;3.13;;
53513;SDS011;39768;54.148;12.174;2023-02-28T00:13:20;3.60;;;2.35;;
53513;SDS011;39768;54.148;12.174;2023-02-28T00:17:22;5.43;;;2.45;;
53513;SDS011;39768;54.148;12.174;2023-02-28T00:21:23;2.92;;;2.63;;
53513;SDS011;39768;54.148;12.174;2023-02-28T00:25:25;3.30;;;2.63;;
53513;SDS011;39768;54.148;12.174;2023-02-28T00:29:27;5.68;;;2.75;;
53513;SDS011;39768;54.148;12.174;2023-02-28T00:33:29;2.63;;;2.42;;
53513;SDS011;39768;54.148;12.174;2023-02-28T00:37:30;2.80;;;2.55;;
53513;SDS011;39768;54.148;12.174;2023-02-28T00:41:32;1.80;;;1.70;;
53513;SDS011;39768;54.148;12.174;2023-02-28T00:45:33;2.80;;;2.60;;
53513;SDS011;39768;54.148;12.174;2023-02-28T00:49:35;1.80;;;1.70;;
53513;SDS011;39768;54.148;12.174;2023-02-28T00:53:36;2.70;;;1.60;;
53513;SDS011;39768;54.148;12.174;2023-02-28T00:57:38;4.32;;;1.40;;
53513;SDS011;39768;54.148;12.174;2023-02-28T01:01:40;1.08;;;1.08;;
53513;SDS011;39768;54.148;12.174;2023-02-28T01:05:43;1.52;;;1.42;;
53513;SDS011;39768;54.148;12.174;2023-02-28T01:09:45;1.48;;;1.38;;
53513;SDS011;39768;54.148;12.174;2023-02-28T01:13:46;0.98;;;0.98;;
53513;SDS011;39768;54.148;12.174;2023-02-28T01:17:49;1.00;;;1.00;;
53513;SDS011;39768;54.148;12.174;2023-02-28T01:21:50;1.73;;;1.15;;
53513;SDS011;39768;54.148;12.174;2023-02-28T01:25:52;2.08;;;1.67;;
53513;SDS011;39768;54.148;12.174;2023-02-28T01:29:53;2.20;;;1.98;;
53513;SDS011;39768;54.148;12.174;2023-02-28T01:33:55;3.33;;;1.67;;
53513;SDS011;39768;54.148;12.174;2023-02-28T01:37:56;1.75;;;1.65;;
53513;SDS011;39768;54.148;12.174;2023-02-28T01:42:10;1.35;;;1.25;;
53513;SDS011;39768;54.148;12.174;2023-02-28T01:46:12;4.15;;;2.35;;
53513;SDS011;39768;54.148;12.174;2023-02-28T01:50:17;1.80;;;1.70;;
53513;SDS011;39768;54.148;12.174;2023-02-28T01:54:29;1.77;;;1.67;;
53513;SDS011;39768;54.148;12.174;2023-02-28T01:58:34;2.22;;;1.70;;
53513;SDS011;39768;54.148;12.174;2023-02-28T02:02:36;1.73;;;1.60;;
53513;SDS011;39768;54.148;12.174;2023-02-28T02:06:42;3.13;;;1.77;;
53513;SDS011;39768;54.148;12.174;2023-02-28T02:10:46;3.80;;;1.50;;
53513;SDS011;39768;54.148;12.174;2023-02-28T02:15:00;4.30;;;1.52;;
53513;SDS011;39768;54.148;12.174;2023-02-28T02:32:57;3.47;;;2.13;;
53513;SDS011;39768;54.148;12.174;2023-02-28T02:41:54;2.70;;;2.30;;
53513;SDS011;39768;54.148;12.174;2023-02-28T02:46:02;2.33;;;2.22;;
53513;SDS011;39768;54.148;12.174;2023-02-28T02:50:08;2.22;;;1.88;;
53513;SDS011;39768;54.148;12.174;2023-02-28T02:58:45;2.10;;;1.60;;
53513;SDS011;39768;54.148;12.174;2023-02-28T03:02:49;1.77;;;1.67;;
53513;SDS011;39768;54.148;12.174;2023-02-28T03:06:55;2.17;;;1.75;;
53513;SDS011;39768;54.148;12.174;2023-02-28T03:10:57;1.45;;;1.35;;
53513;SDS011;39768;54.148;12.174;2023-02-28T03:15:08;1.85;;;1.75;;
53513;SDS011;39768;54.148;12.174;2023-02-28T03:19:28;3.65;;;1.65;;
53513;SDS011;39768;54.148;12.174;2023-02-28T03:32:03;1.92;;;1.83;;
53513;SDS011;39768;54.148;12.174;2023-02-28T03:36:17;1.45;;;1.35;;
53513;SDS011;39768;54.148;12.174;2023-02-28T03:40:22;3.10;;;1.95;;
53513;SDS011;39768;54.148;12.174;2023-02-28T03:48:57;1.60;;;1.33;;
53513;SDS011;39768;54.148;12.174;2023-02-28T03:57:32;1.80;;;1.35;;
53513;SDS011;39768;54.148;12.174;2023-02-28T04:01:43;4.47;;;1.80;;
53513;SDS011;39768;54.148;12.174;2023-02-28T04:05:50;2.20;;;2.10;;
53513;SDS011;39768;54.148;12.174;2023-02-28T04:09:54;3.17;;;2.00;;
53513;SDS011;39768;54.148;12.174;2023-02-28T04:13:55;4.03;;;2.00;;
53513;SDS011;39768;54.148;12.174;2023-02-28T04:17:57;1.88;;;1.77;;
53513;SDS011;39768;54.148;12.174;2023-02-28T04:21:58;2.70;;;1.95;;
53513;SDS011;39768;54.148;12.174;2023-02-28T04:26:00;2.85;;;1.70;;
53513;SDS011;39768;54.148;12.174;2023-02-28T04:30:01;2.65;;;1.83;;
53513;SDS011;39768;54.148;12.174;2023-02-28T04:34:03;2.38;;;2.08;;
53513;SDS011;39768;54.148;12.174;2023-02-28T04:38:05;4.32;;;1.58;;
53513;SDS011;39768;54.148;12.174;2023-02-28T04:42:07;2.47;;;1.75;;
53513;SDS011;39768;54.148;12.174;2023-02-28T04:46:08;2.97;;;1.92;;
53513;SDS011;39768;54.148;12.174;2023-02-28T04:50:11;3.65;;;2.20;;
53513;SDS011;39768;54.148;12.174;2023-02-28T04:54:12;2.28;;;1.92;;
53513;SDS011;39768;54.148;12.174;2023-02-28T04:58:14;3.75;;;2.47;;
53513;SDS011;39768;54.148;12.174;2023-02-28T05:02:16;5.55;;;2.22;;
53513;SDS011;39768;54.148;12.174;2023-02-28T05:06:18;3.38;;;1.75;;
53513;SDS011;39768;54.148;12.174;2023-02-28T05:10:20;2.33;;;1.90;;
53513;SDS011;39768;54.148;12.174;2023-02-28T05:14:21;2.30;;;2.15;;
53513;SDS011;39768;54.148;12.174;2023-02-28T05:18:23;4.10;;;2.40;;
53513;SDS011;39768;54.148;12.174;2023-02-28T05:22:24;2.72;;;2.35;;
53513;SDS011;39768;54.148;12.174;2023-02-28T05:26:26;1.35;;;1.35;;
53513;SDS011;39768;54.148;12.174;2023-02-28T05:30:29;2.00;;;1.77;;
53513;SDS011;39768;54.148;12.174;2023-02-28T05:34:31;2.42;;;2.22;;
53513;SDS011;39768;54.148;12.174;2023-02-28T05:38:32;3.65;;;1.90;;
53513;SDS011;39768;54.148;12.174;2023-02-28T05:42:34;9.63;;;4.00;;
53513;SDS011;39768;54.148;12.174;2023-02-28T05:46:35;6.90;;;2.95;;
53513;SDS011;39768;54.148;12.174;2023-02-28T05:50:36;4.07;;;3.42;;
53513;SDS011;39768;54.148;12.174;2023-02-28T05:54:38;9.20;;;2.83;;
53513;SDS011;39768;54.148;12.174;2023-02-28T05:58:39;2.63;;;2.42;;
53513;SDS011;39768;54.148;12.174;2023-02-28T06:02:41;5.68;;;2.45;;
53513;SDS011;39768;54.148;12.174;2023-02-28T06:06:43;4.07;;;2.58;;
53513;SDS011;39768;54.148;12.174;2023-02-28T06:10:45;2.72;;;1.92;;
53513;SDS011;39768;54.148;12.174;2023-02-28T06:14:47;6.55;;;2.33;;
53513;SDS011;39768;54.148;12.174;2023-02-28T06:18:49;4.75;;;2.72;;
53513;SDS011;39768;54.148;12.174;2023-02-28T06:22:50;5.20;;;1.65;;
53513;SDS011;39768;54.148;12.174;2023-02-28T06:26:52;4.07;;;2.53;;
53513;SDS011;39768;54.148;12.174;2023-02-28T06:30:53;2.20;;;2.10;;
53513;SDS011;39768;54.148;12.174;2023-02-28T06:34:55;2.78;;;2.58;;
53513;SDS011;39768;54.148;12.174;2023-02-28T06:38:58;5.72;;;2.85;;
53513;SDS011;39768;54.148;12.174;2023-02-28T06:43:00;2.95;;;2.60;;
53513;SDS011;39768;54.148;12.174;2023-02-28T06:47:02;4.85;;;3.20;;
53513;SDS011;39768;54.148;12.174;2023-02-28T06:51:06;2.85;;;2.65;;
53513;SDS011;39768;54.148;12.174;2023-02-28T06:55:09;2.28;;;2.08;;
53513;SDS011;39768;54.148;12.174;2023-02-28T06:59:11;5.10;;;2.45;;
53513;SDS011;39768;54.148;12.174;2023-02-28T07:03:12;2.45;;;2.22;;
53513;SDS011;39768;54.148;12.174;2023-02-28T07:07:16;2.55;;;1.85;;
53513;SDS011;39768;54.148;12.174;2023-02-28T07:11:18;2.13;;;2.00;;
53513;SDS011;39768;54.148;12.174;2023-02-28T07:15:20;3.42;;;2.70;;
53513;SDS011;39768;54.148;12.174;2023-02-28T07:19:22;2.90;;;2.70;;
53513;SDS011;39768;54.148;12.174;2023-02-28T07:23:23;3.10;;;2.50;;
53513;SDS011;39768;54.148;12.174;2023-02-28T07:27:25;4.32;;;3.03;;
53513;SDS011;39768;54.148;12.174;2023-02-28T07:31:27;2.53;;;2.30;;
53513;SDS011;39768;54.148;12.174;2023-02-28T07:35:29;2.88;;;2.67;;
53513;SDS011;39768;54.148;12.174;2023-02-28T07:39:31;6.20;;;2.70;;
53513;SDS011;39768;54.148;12.174;2023-02-28T07:43:32;2.60;;;2.40;;
53513;SDS011;39768;54.148;12.174;2023-02-28T07:47:34;1.92;;;1.83;;
53513;SDS011;39768;54.148;12.174;2023-02-28T07:51:35;2.97;;;2.38;;
53513;SDS011;39768;54.148;12.174;2023-02-28T07:55:37;2.67;;;2.47;;
53513;SDS011;39768;54.148;12.174;2023-02-28T07:59:38;3.08;;;2.78;;
53513;SDS011;39768;54.148;12.174;2023-02-28T08:03:40;3.03;;;1.98;;
53513;SDS011;39768;54.148;12.174;2023-02-28T08:07:42;9.13;;;2.17;;
53513;SDS011;39768;54.148;12.174;2023-02-28T08:11:44;4.82;;;2.70;;
53513;SDS011;39768;54.148;12.174;2023-02-28T08:15:45;3.55;;;1.80;;
53513;SDS011;39768;54.148;12.174;2023-02-28T08:19:48;3.30;;;2.95;;
53513;SDS011;39768;54.148;12.174;2023-02-28T08:23:50;2.50;;;2.30;;
53513;SDS011;39768;54.148;12.174;2023-02-28T08:27:52;2.38;;;2.17;;
53513;SDS011;39768;54.148;12.174;2023-02-28T08:31:54;2.85;;;2.65;;
53513;SDS011;39768;54.148;12.174;2023-02-28T08:35:55;4.47;;;2.83;;
53513;SDS011;39768;54.148;12.174;2023-02-28T08:39:57;4.28;;;2.53;;
53513;SDS011;39768;54.148;12.174;2023-02-28T08:43:59;4.78;;;2.78;;
53513;SDS011;39768;54.148;12.174;2023-02-28T08:48:01;2.47;;;2.28;;
53513;SDS011;39768;54.148;12.174;2023-02-28T08:52:03;4.65;;;3.78;;
53513;SDS011;39768;54.148;12.174;2023-02-28T08:56:12;2.17;;;1.88;;
53513;SDS011;39768;54.148;12.174;2023-02-28T09:04:16;2.22;;;1.52;;
53513;SDS011;39768;54.148;12.174;2023-02-28T09:08:21;1.88;;;1.52;;
53513;SDS011;39768;54.148;12.174;2023-02-28T09:12:26;1.10;;;1.10;;
53513;SDS011;39768;54.148;12.174;2023-02-28T09:16:28;1.98;;;1.50;;
53513;SDS011;39768;54.148;12.174;2023-02-28T09:20:32;2.13;;;1.60;;
53513;SDS011;39768;54.148;12.174;2023-02-28T09:24:33;1.42;;;1.33;;
53513;SDS011;39768;54.148;12.174;2023-02-28T09:28:34;4.90;;;1.77;;
53513;SDS011;39768;54.148;12.174;2023-02-28T09:32:36;1.15;;;1.13;;
53513;SDS011;39768;54.148;12.174;2023-02-28T09:36:37;1.02;;;1.00;;
53513;SDS011;39768;54.148;12.174;2023-02-28T09:40:50;0.63;;;0.63;;
53513;SDS011;39768;54.148;12.174;2023-02-28T09:44:53;1.67;;;0.95;;
53513;SDS011;39768;54.148;12.174;2023-02-28T09:48:58;1.70;;;1.00;;
53513;SDS011;39768;54.148;12.174;2023-02-28T09:53:04;1.40;;;1.30;;
53513;SDS011;39768;54.148;12.174;2023-02-28T10:06:19;1.63;;;1.40;;
53513;SDS011;39768;54.148;12.174;2023-02-28T10:10:27;1.20;;;1.17;;
53513;SDS011;39768;54.148;12.174;2023-02-28T10:14:34;0.73;;;0.73;;
53513;SDS011;39768;54.148;12.174;2023-02-28T10:18:43;1.30;;;0.95;;
53513;SDS011;39768;54.148;12.174;2023-02-28T10:23:05;1.67;;;1.67;;
53513;SDS011;39768;54.148;12.174;2023-02-28T10:31:21;0.75;;;0.75;;
53513;SDS011;39768;54.148;12.174;2023-02-28T10:35:25;1.00;;;0.88;;
53513;SDS011;39768;54.148;12.174;2023-02-28T10:39:38;1.00;;;0.68;;
53513;SDS011;39768;54.148;12.174;2023-02-28T10:43:49;0.60;;;0.60;;
53513;SDS011;39768;54.148;12.174;2023-02-28T10:47:58;1.35;;;1.25;;
53513;SDS011;39768;54.148;12.174;2023-02-28T10:52:02;1.05;;;1.05;;
53513;SDS011;39768;54.148;12.174;2023-02-28T11:00:16;0.95;;;0.93;;
53513;SDS011;39768;54.148;12.174;2023-02-28T11:08:30;1.00;;;1.00;;
53513;SDS011;39768;54.148;12.174;2023-02-28T11:12:34;1.63;;;0.80;;
53513;SDS011;39768;54.148;12.174;2023-02-28T11:16:52;1.50;;;1.02;;
53513;SDS011;39768;54.148;12.174;2023-02-28T11:20:56;1.25;;;1.20;;
53513;SDS011;39768;54.148;12.174;2023-02-28T11:25:01;1.58;;;1.33;;
53513;SDS011;39768;54.148;12.174;2023-02-28T11:29:16;3.65;;;1.25;;
53513;SDS011;39768;54.148;12.174;2023-02-28T11:33:22;0.60;;;0.60;;
53513;SDS011;39768;54.148;12.174;2023-02-28T11:37:41;0.57;;;0.57;;
53513;SDS011;39768;54.148;12.174;2023-02-28T11:42:04;1.05;;;1.05;;
53513;SDS011;39768;54.148;12.174;2023-02-28T11:46:18;0.70;;;0.70;;
53513;SDS011;39768;54.148;12.174;2023-02-28T12:03:39;3.33;;;0.65;;
53513;SDS011;39768;54.148;12.174;2023-02-28T12:12:53;0.75;;;0.75;;
53513;SDS011;39768;54.148;12.174;2023-02-28T12:29:32;0.93;;;0.93;;
53513;SDS011;39768;54.148;12.174;2023-02-28T12:33:47;2.92;;;0.57;;
53513;SDS011;39768;54.148;12.174;2023-02-28T12:38:06;0.82;;;0.52;;
53513;SDS011;39768;54.148;12.174;2023-02-28T12:42:19;2.40;;;0.82;;
53513;SDS011;39768;54.148;12.174;2023-02-28T12:46:37;0.40;;;0.40;;
53513;SDS011;39768;54.148;12.174;2023-02-28T12:50:42;0.38;;;0.38;;
53513;SDS011;39768;54.148;12.174;2023-02-28T12:54:46;0.47;;;0.47;;
53513;SDS011;39768;54.148;12.174;2023-02-28T12:58:56;0.50;;;0.50;;
53513;SDS011;39768;54.148;12.174;2023-02-28T13:07:32;1.05;;;0.95;;
53513;SDS011;39768;54.148;12.174;2023-02-28T13:11:55;0.73;;;0.73;;
53513;SDS011;39768;54.148;12.174;2023-02-28T13:16:00;0.35;;;0.35;;
53513;SDS011;39768;54.148;12.174;2023-02-28T13:20:04;0.50;;;0.50;;
53513;SDS011;39768;54.148;12.174;2023-02-28T13:29:00;0.43;;;0.43;;
53513;SDS011;39768;54.148;12.174;2023-02-28T13:45:37;0.40;;;0.40;;
53513;SDS011;39768;54.148;12.174;2023-02-28T13:49:40;0.75;;;0.75;;
53513;SDS011;39768;54.148;12.174;2023-02-28T13:53:49;0.50;;;0.50;;
53513;SDS011;39768;54.148;12.174;2023-02-28T14:07:08;0.30;;;0.30;;
53513;SDS011;39768;54.148;12.174;2023-02-28T14:11:24;0.40;;;0.40;;
53513;SDS011;39768;54.148;12.174;2023-02-28T14:15:41;0.77;;;0.50;;
53513;SDS011;39768;54.148;12.174;2023-02-28T14:19:47;0.52;;;0.52;;
53513;SDS011;39768;54.148;12.174;2023-02-28T14:37:00;0.63;;;0.40;;
53513;SDS011;39768;54.148;12.174;2023-02-28T14:41:05;0.30;;;0.30;;
53513;SDS011;39768;54.148;12.174;2023-02-28T14:45:19;0.50;;;0.50;;
53513;SDS011;39768;54.148;12.174;2023-02-28T14:49:28;0.30;;;0.30;;
53513;SDS011;39768;54.148;12.174;2023-02-28T14:53:44;0.50;;;0.50;;
53513;SDS011;39768;54.148;12.174;2023-02-28T14:57:55;0.50;;;0.50;;
53513;SDS011;39768;54.148;12.174;2023-02-28T15:02:17;0.80;;;0.50;;
53513;SDS011;39768;54.148;12.174;2023-02-28T15:06:19;0.50;;;0.50;;
53513;SDS011;39768;54.148;12.174;2023-02-28T15:10:24;0.40;;;0.40;;
53513;SDS011;39768;54.148;12.174;2023-02-28T15:14:27;0.50;;;0.50;;
53513;SDS011;39768;54.148;12.174;2023-02-28T15:22:44;0.30;;;0.30;;
53513;SDS011;39768;54.148;12.174;2023-02-28T15:26:49;0.77;;;0.75;;
53513;SDS011;39768;54.148;12.174;2023-02-28T15:31:01;1.83;;;0.60;;
53513;SDS011;39768;54.148;12.174;2023-02-28T15:35:27;0.50;;;0.50;;
53513;SDS011;39768;54.148;12.174;2023-02-28T15:39:31;0.50;;;0.50;;
53513;SDS011;39768;54.148;12.174;2023-02-28T15:43:43;0.40;;;0.40;;
53513;SDS011;39768;54.148;12.174;2023-02-28T15:47:45;0.40;;;0.40;;
53513;SDS011;39768;54.148;12.174;2023-02-28T15:51:48;0.45;;;0.45;;
53513;SDS011;39768;54.148;12.174;2023-02-28T15:55:56;0.77;;;0.77;;
53513;SDS011;39768;54.148;12.174;2023-02-28T16:00:02;5.60;;;1.90;;
53513;SDS011;39768;54.148;12.174;2023-02-28T16:08:20;0.45;;;0.45;;
53513;SDS011;39768;54.148;12.174;2023-02-28T16:12:24;0.50;;;0.50;;
53513;SDS011;39768;54.148;12.174;2023-02-28T16:16:30;0.60;;;0.60;;
53513;SDS011;39768;54.148;12.174;2023-02-28T16:20:32;0.57;;;0.57;;
53513;SDS011;39768;54.148;12.174;2023-02-28T16:24:34;0.70;;;0.70;;
53513;SDS011;39768;54.148;12.174;2023-02-28T16:28:36;0.57;;;0.57;;
53513;SDS011;39768;54.148;12.174;2023-02-28T16:32:39;0.40;;;0.40;;
53513;SDS011;39768;54.148;12.174;2023-02-28T16:36:41;0.60;;;0.60;;
53513;SDS011;39768;54.148;12.174;2023-02-28T16:40:42;0.63;;;0.63;;
53513;SDS011;39768;54.148;12.174;2023-02-28T16:44:46;1.10;;;0.77;;
53513;SDS011;39768;54.148;12.174;2023-02-28T16:48:47;0.45;;;0.45;;
53513;SDS011;39768;54.148;12.174;2023-02-28T16:52:52;0.50;;;0.50;;
53513;SDS011;39768;54.148;12.174;2023-02-28T16:56:55;0.40;;;0.40;;
53513;SDS011;39768;54.148;12.174;2023-02-28T17:00:57;0.68;;;0.68;;
53513;SDS011;39768;54.148;12.174;2023-02-28T17:04:58;0.63;;;0.63;;
53513;SDS011;39768;54.148;12.174;2023-02-28T17:09:00;0.90;;;0.90;;
53513;SDS011;39768;54.148;12.174;2023-02-28T17:13:01;0.70;;;0.70;;
53513;SDS011;39768;54.148;12.174;2023-02-28T17:17:18;0.88;;;0.85;;
53513;SDS011;39768;54.148;12.174;2023-02-28T17:21:22;0.95;;;0.95;;
53513;SDS011;39768;54.148;12.174;2023-02-28T17:25:24;0.45;;;0.45;;
53513;SDS011;39768;54.148;12.174;2023-02-28T17:29:25;0.63;;;0.63;;
53513;SDS011;39768;54.148;12.174;2023-02-28T17:33:27;0.93;;;0.93;;
53513;SDS011;39768;54.148;12.174;2023-02-28T17:37:28;0.95;;;0.68;;
53513;SDS011;39768;54.148;12.174;2023-02-28T17:41:30;0.68;;;0.68;;
53513;SDS011;39768;54.148;12.174;2023-02-28T17:45:32;0.57;;;0.57;;
53513;SDS011;39768;54.148;12.174;2023-02-28T17:49:35;0.50;;;0.50;;
53513;SDS011;39768;54.148;12.174;2023-02-28T17:53:37;0.70;;;0.70;;
53513;SDS011;39768;54.148;12.174;2023-02-28T17:57:39;2.65;;;1.02;;
53513;SDS011;39768;54.148;12.174;2023-02-28T18:01:42;3.00;;;1.75;;
53513;SDS011;39768;54.148;12.174;2023-02-28T18:05:44;1.60;;;1.55;;
53513;SDS011;39768;54.148;12.174;2023-02-28T18:09:46;2.30;;;1.60;;
53513;SDS011;39768;54.148;12.174;2023-02-28T18:13:49;1.70;;;1.60;;
53513;SDS011;39768;54.148;12.174;2023-02-28T18:17:54;1.40;;;0.90;;
53513;SDS011;39768;54.148;12.174;2023-02-28T18:21:56;0.85;;;0.85;;
53513;SDS011;39768;54.148;12.174;2023-02-28T18:25:57;1.02;;;1.02;;
53513;SDS011;39768;54.148;12.174;2023-02-28T18:29:59;0.82;;;0.82;;
53513;SDS011;39768;54.148;12.174;2023-02-28T18:34:00;0.75;;;0.75;;
53513;SDS011;39768;54.148;12.174;2023-02-28T18:38:06;2.10;;;2.00;;
53513;SDS011;39768;54.148;12.174;2023-02-28T18:46:14;1.15;;;1.05;;
53513;SDS011;39768;54.148;12.174;2023-02-28T18:50:17;1.08;;;1.08;;
53513;SDS011;39768;54.148;12.174;2023-02-28T18:54:19;1.80;;;1.17;;
53513;SDS011;39768;54.148;12.174;2023-02-28T18:58:20;1.42;;;1.10;;
53513;SDS011;39768;54.148;12.174;2023-02-28T19:02:21;1.60;;;1.50;;
53513;SDS011;39768;54.148;12.174;2023-02-28T19:06:23;1.38;;;1.17;;
53513;SDS011;39768;54.148;12.174;2023-02-28T19:10:24;1.77;;;1.25;;
53513;SDS011;39768;54.148;12.174;2023-02-28T19:14:26;1.90;;;1.80;;
53513;SDS011;39768;54.148;12.174;2023-02-28T19:18:27;2.17;;;2.08;;
53513;SDS011;39768;54.148;12.174;2023-02-28T19:22:29;1.50;;;1.38;;
53513;SDS011;39768;54.148;12.174;2023-02-28T19:26:31;4.18;;;2.13;;
53513;SDS011;39768;54.148;12.174;2023-02-28T19:30:32;1.88;;;1.60;;
53513;SDS011;39768;54.148;12.174;2023-02-28T19:34:33;1.02;;;1.02;;
53513;SDS011;39768;54.148;12.174;2023-02-28T19:38:35;1.15;;;1.15;;
53513;SDS011;39768;54.148;12.174;2023-02-28T19:42:36;1.85;;;1.75;;
53513;SDS011;39768;54.148;12.174;2023-02-28T19:46:38;3.17;;;1.38;;
53513;SDS011;39768;54.148;12.174;2023-02-28T19:50:40;1.30;;;1.30;;
53513;SDS011;39768;54.148;12.174;2023-02-28T19:54:42;1.80;;;1.30;;
53513;SDS011;39768;54.148;12.174;2023-02-28T19:58:43;2.88;;;1.95;;
53513;SDS011;39768;54.148;12.174;2023-02-28T20:02:45;6.53;;;1.80;;
53513;SDS011;39768;54.148;12.174;2023-02-28T20:06:46;1.13;;;1.13;;
53513;SDS011;39768;54.148;12.174;2023-02-28T20:10:48;3.15;;;1.30;;
53513;SDS011;39768;54.148;12.174;2023-02-28T20:14:49;1.83;;;1.13;;
53513;SDS011;39768;54.148;12.174;2023-02-28T20:18:51;1.45;;;1.35;;
53513;SDS011;39768;54.148;12.174;2023-02-28T20:22:52;2.13;;;1.25;;
53513;SDS011;39768;54.148;12.174;2023-02-28T20:26:54;1.77;;;1.20;;
53513;SDS011;39768;54.148;12.174;2023-02-28T20:30:57;2.97;;;2.03;;
53513;SDS011;39768;54.148;12.174;2023-02-28T20:35:00;1.58;;;1.40;;
53513;SDS011;39768;54.148;12.174;2023-02-28T20:39:02;2.80;;;1.88;;
53513;SDS011;39768;54.148;12.174;2023-02-28T20:43:04;7.15;;;1.58;;
53513;SDS011;39768;54.148;12.174;2023-02-28T20:47:06;5.07;;;2.30;;
53513;SDS011;39768;54.148;12.174;2023-02-28T20:51:09;2.38;;;1.80;;
53513;SDS011;39768;54.148;12.174;2023-02-28T20:55:11;4.68;;;1.55;;
53513;SDS011;39768;54.148;12.174;2023-02-28T20:59:13;3.33;;;1.30;;
53513;SDS011;39768;54.148;12.174;2023-02-28T21:03:14;2.40;;;1.92;;
53513;SDS011;39768;54.148;12.174;2023-02-28T21:07:16;3.75;;;1.25;;
53513;SDS011;39768;54.148;12.174;2023-02-28T21:11:18;3.72;;;1.35;;
53513;SDS011;39768;54.148;12.174;2023-02-28T21:15:22;2.72;;;1.30;;
53513;SDS011;39768;54.148;12.174;2023-02-28T21:19:25;1.45;;;1.33;;
53513;SDS011;39768;54.148;12.174;2023-02-28T21:23:26;1.77;;;1.33;;
53513;SDS011;39768;54.148;12.174;2023-02-28T21:27:28;2.85;;;1.13;;
53513;SDS011;39768;54.148;12.174;2023-02-28T21:31:30;0.95;;;0.95;;
53513;SDS011;39768;54.148;12.174;2023-02-28T21:35:33;9.38;;;2.03;;
53513;SDS011;39768;54.148;12.174;2023-02-28T21:39:34;1.52;;;1.13;;
53513;SDS011;39768;54.148;12.174;2023-02-28T21:43:36;4.68;;;2.40;;
53513;SDS011;39768;54.148;12.174;2023-02-28T21:47:37;1.98;;;1.88;;
53513;SDS011;39768;54.148;12.174;2023-02-28T21:51:39;1.48;;;1.38;;
53513;SDS011;39768;54.148;12.174;2023-02-28T21:55:40;6.13;;;1.73;;
53513;SDS011;39768;54.148;12.174;2023-02-28T21:59:42;1.70;;;1.60;;
53513;SDS011;39768;54.148;12.174;2023-02-28T22:03:44;3.13;;;2.90;;
53513;SDS011;39768;54.148;12.174;2023-02-28T22:07:47;5.70;;;2.47;;
53513;SDS011;39768;54.148;12.174;2023-02-28T22:11:48;4.03;;;3.63;;
53513;SDS011;39768;54.148;12.174;2023-02-28T22:15:50;6.10;;;3.60;;
53513;SDS011;39768;54.148;12.174;2023-02-28T22:19:52;4.22;;;3.75;;
53513;SDS011;39768;54.148;12.174;2023-02-28T22:23:53;2.63;;;2.42;;
53513;SDS011;39768;54.148;12.174;2023-02-28T22:27:55;7.35;;;3.10;;
53513;SDS011;39768;54.148;12.174;2023-02-28T22:31:56;2.70;;;2.50;;
53513;SDS011;39768;54.148;12.174;2023-02-28T22:35:58;3.22;;;2.80;;
53513;SDS011;39768;54.148;12.174;2023-02-28T22:40:06;3.72;;;2.70;;
53513;SDS011;39768;54.148;12.174;2023-02-28T22:44:09;2.47;;;2.28;;
53513;SDS011;39768;54.148;12.174;2023-02-28T22:48:11;5.35;;;2.30;;
53513;SDS011;39768;54.148;12.174;2023-02-28T22:52:13;2.35;;;2.13;;
53513;SDS011;39768;54.148;12.174;2023-02-28T22:56:14;2.45;;;2.22;;
53513;SDS011;39768;54.148;12.174;2023-02-28T23:00:17;2.33;;;1.73;;
53513;SDS011;39768;54.148;12.174;2023-02-28T23:04:20;3.10;;;2.10;;
53513;SDS011;39768;54.148;12.174;2023-02-28T23:08:25;2.42;;;2.22;;
53513;SDS011;39768;54.148;12.174;2023-02-28T23:12:27;3.85;;;2.72;;
53513;SDS011;39768;54.148;12.174;2023-02-28T23:16:30;1.75;;;1.63;;
53513;SDS011;39768;54.148;12.174;2023-02-28T23:20:35;2.55;;;2.22;;
53513;SDS011;39768;54.148;12.174;2023-02-28T23:24:36;2.60;;;2.40;;
53513;SDS011;39768;54.148;12.174;2023-02-28T23:28:38;2.35;;;1.77;;
53513;SDS011;39768;54.148;12.174;2023-02-28T23:32:40;2.72;;;1.63;;
53513;SDS011;39768;54.148;12.174;2023-02-28T23:36:42;2.15;;;2.03;;
53513;SDS011;39768;54.148;12.174;2023-02-28T23:40:46;2.55;;;1.77;;
53513;SDS011;39768;54.148;12.174;2023-02-28T23:44:48;1.73;;;1.63;;
53513;SDS011;39768;54.148;12.174;2023-02-28T23:48:49;2.20;;;2.00;;
53513;SDS011;39768;54.148;12.174;2023-02-28T23:52:51;2.25;;;1.95;;
53513;SDS011;39768;54.148;12.174;2023-02-28T23:56:53;4.80;;;1.52;;
